Time;durP1;ratioP1;P1;durP2;ratioP2;P2;SDS_P1;SDS_P2;PMS_P1;PMS_P2;Temp;Humidity;BMP_temperature;BMP_pressure;BME280_temperature;BME280_humidity;BME280_pressure;Samples;Min_cycle;Max_cycle;Signal;HPM_P1;HPM_P2
2022/07/24 00:02:11;;;;;;;5.60;2.10;;;;;;;23.00;100.00;99458.13;1718120;82;20940;-72
2022/07/24 00:04:38;;;;;;;7.03;2.70;;;;;;;23.11;100.00;99458.10;1719610;83;21071;-71
2022/07/24 00:07:10;;;;;;;5.65;2.37;;;;;;;23.17;100.00;99454.25;1719218;83;21537;-72
2022/07/24 00:09:38;;;;;;;;;;;;;;;23.19;100.00;99454.64;1703448;83;20944;-71
2022/07/24 00:12:08;;;;;;;3.47;2.50;;;;;;;23.02;100.00;99464.16;1667382;83;21085;-71
2022/07/24 00:14:37;;;;;;;3.42;2.60;;;;;;;22.97;100.00;99464.57;1717587;83;20988;-72
2022/07/24 00:17:03;;;;;;;5.25;2.30;;;;;;;22.87;100.00;99460.60;1684346;83;20884;-72
2022/07/24 00:19:30;;;;;;;3.35;2.30;;;;;;;22.79;100.00;99461.21;1635073;85;20968;-71
2022/07/24 00:21:59;;;;;;;12.40;2.52;;;;;;;22.69;100.00;99469.09;1719240;83;20987;-72
2022/07/24 00:24:29;;;;;;;3.17;2.20;;;;;;;22.57;100.00;99465.45;1654246;84;21038;-72
2022/07/24 00:26:58;;;;;;;5.20;2.60;;;;;;;22.49;100.00;99460.47;1720588;81;20967;-72
2022/07/24 00:29:32;;;;;;;4.15;2.20;;;;;;;22.49;100.00;99464.67;1717183;83;20992;-72
2022/07/24 00:31:59;;;;;;;5.25;2.17;;;;;;;22.49;100.00;99461.06;1714270;83;21481;-72
2022/07/24 00:34:33;;;;;;;2.10;1.77;;;;;;;22.50;100.00;99452.23;1691651;83;21000;-72
2022/07/24 00:37:00;;;;;;;3.62;2.10;;;;;;;22.48;100.00;99457.44;1690927;83;21562;-72
2022/07/24 00:39:27;;;;;;;5.80;2.47;;;;;;;22.46;100.00;99459.06;1680796;85;21523;-71
2022/07/24 00:41:54;;;;;;;3.02;1.92;;;;;;;22.42;100.00;99461.88;1707410;83;20856;-72
2022/07/24 00:44:23;;;;;;;8.78;3.58;;;;;;;22.35;100.00;99467.48;1680947;83;20905;-72
2022/07/24 00:46:53;;;;;;;3.52;2.15;;;;;;;22.31;100.00;99456.29;1719527;83;20892;-71
2022/07/24 00:49:22;;;;;;;7.08;2.25;;;;;;;22.28;100.00;99464.08;1715458;83;21286;-70
2022/07/24 00:51:52;;;;;;;6.50;2.17;;;;;;;22.21;100.00;99464.11;1710328;83;20957;-70
2022/07/24 00:54:20;;;;;;;4.70;1.85;;;;;;;22.29;100.00;99462.90;1692983;83;21048;-72
2022/07/24 00:56:50;;;;;;;8.88;2.30;;;;;;;22.30;100.00;99462.28;1680746;85;21514;-73
2022/07/24 00:59:18;;;;;;;6.12;2.72;;;;;;;22.28;100.00;99451.46;1712398;83;21535;-72
2022/07/24 01:01:49;;;;;;;6.15;2.17;;;;;;;22.27;100.00;99459.69;1720741;82;21094;-72
2022/07/24 01:04:17;;;;;;;2.25;1.95;;;;;;;22.24;100.00;99454.89;1736466;82;21488;-72
2022/07/24 01:06:44;;;;;;;4.80;2.20;;;;;;;22.19;100.00;99467.32;1740048;82;20846;-72
2022/07/24 01:09:11;;;;;;;6.22;2.17;;;;;;;22.07;100.00;99468.53;1739647;82;20920;-73
2022/07/24 01:11:44;;;;;;;3.58;2.08;;;;;;;21.99;100.00;99480.33;1736842;82;21409;-71
2022/07/24 01:14:12;;;;;;;3.12;2.37;;;;;;;21.89;100.00;99477.72;1740208;82;21180;-72
2022/07/24 01:16:39;;;;;;;4.12;1.98;;;;;;;21.87;100.00;99472.33;1737804;82;21025;-72
2022/07/24 01:19:07;;;;;;;5.20;2.12;;;;;;;21.94;100.00;99469.50;1737003;82;21060;-72
2022/07/24 01:21:33;;;;;;;6.45;3.35;;;;;;;22.01;100.00;99468.70;1736176;82;21043;-73
2022/07/24 01:24:02;;;;;;;3.25;2.33;;;;;;;22.03;100.00;99474.72;1737333;82;21002;-72
2022/07/24 01:26:30;;;;;;;6.90;2.08;;;;;;;22.00;100.00;99476.34;1699106;83;21156;-72
2022/07/24 01:29:03;;;;;;;5.08;2.42;;;;;;;21.92;100.00;99474.70;1740055;80;21466;-72
2022/07/24 01:31:32;;;;;;;7.42;2.22;;;;;;;21.84;100.00;99467.48;1718897;83;20881;-72
2022/07/24 01:34:06;;;;;;;4.10;2.33;;;;;;;21.79;100.00;99468.69;1718909;83;20984;-72
2022/07/24 01:36:36;;;;;;;3.27;2.02;;;;;;;21.77;100.00;99478.06;1697829;83;21054;-72
2022/07/24 01:39:04;;;;;;;3.58;2.00;;;;;;;21.82;100.00;99478.33;1719001;83;21697;-73
2022/07/24 01:41:33;;;;;;;4.17;2.40;;;;;;;21.83;100.00;99480.73;1716878;83;21477;-73
2022/07/24 01:44:03;;;;;;;5.78;2.25;;;;;;;21.89;100.00;99476.91;1745876;82;20881;-73
2022/07/24 01:46:32;;;;;;;4.40;2.40;;;;;;;21.91;100.00;99476.50;1743566;81;20936;-71
2022/07/24 01:49:03;;;;;;;3.83;2.25;;;;;;;21.92;100.00;99473.92;1746666;82;20967;-72
2022/07/24 01:51:31;;;;;;;5.87;2.27;;;;;;;21.92;100.00;99464.11;1726413;82;21419;-69
2022/07/24 01:54:02;;;;;;;10.58;3.00;;;;;;;21.90;100.00;99471.52;1735485;82;20890;-73
2022/07/24 01:56:32;;;;;;;4.83;3.02;;;;;;;21.92;100.00;99465.52;1737357;82;20996;-72
2022/07/24 01:59:02;;;;;;;6.55;2.50;;;;;;;21.93;100.00;99463.70;1740363;82;20977;-73
2022/07/24 02:01:30;;;;;;;8.43;2.83;;;;;;;21.82;100.00;99460.10;1738744;82;21478;-72
2022/07/24 02:04:03;;;;;;;6.55;2.33;;;;;;;21.89;100.00;99457.28;1740046;82;21718;-73
2022/07/24 02:06:36;;;;;;;8.28;2.45;;;;;;;21.87;100.00;99461.11;1746899;82;20968;-73
2022/07/24 02:09:05;;;;;;;5.53;3.40;;;;;;;21.82;100.00;99460.87;1755929;81;20863;-73
2022/07/24 02:11:33;;;;;;;5.15;2.70;;;;;;;21.73;100.00;99468.25;1737830;82;20925;-72
2022/07/24 02:14:00;;;;;;;5.87;2.77;;;;;;;21.60;100.00;99469.83;1732738;81;21065;-72
2022/07/24 02:16:31;;;;;;;8.00;2.33;;;;;;;21.51;100.00;99468.83;1731154;82;21133;-71
2022/07/24 02:18:59;;;;;;;5.28;2.25;;;;;;;21.49;100.00;99472.62;1740528;82;20980;-73
2022/07/24 02:21:30;;;;;;;4.60;1.90;;;;;;;21.53;100.00;99472.01;1728628;82;20978;-72
2022/07/24 02:24:01;;;;;;;4.00;1.85;;;;;;;21.56;100.00;99469.03;1732270;82;21047;-72
2022/07/24 02:26:30;;;;;;;7.00;2.27;;;;;;;21.63;100.00;99466.25;1729106;82;20975;-72
2022/07/24 02:29:01;;;;;;;2.95;2.10;;;;;;;21.67;100.00;99464.23;1749867;80;21095;-72
2022/07/24 02:31:33;;;;;;;5.60;2.27;;;;;;;21.82;100.00;99460.10;1708383;83;20972;-72
2022/07/24 02:34:00;;;;;;;5.28;2.58;;;;;;;21.96;100.00;99467.70;1725823;82;21440;-72
2022/07/24 02:36:29;;;;;;;4.72;2.80;;;;;;;21.97;100.00;99463.71;1740288;82;21035;-72
2022/07/24 02:38:59;;;;;;;8.33;2.47;;;;;;;21.99;100.00;99474.72;1725998;82;20938;-72
2022/07/24 02:41:28;;;;;;;8.60;2.87;;;;;;;21.99;100.00;99477.52;1734154;82;21611;-72
2022/07/24 02:43:56;;;;;;;3.22;1.95;;;;;;;21.93;100.00;99482.52;1726737;82;21041;-73
2022/07/24 02:46:24;;;;;;;3.33;2.08;;;;;;;21.81;100.00;99478.91;1730393;82;20995;-73
2022/07/24 02:48:55;;;;;;;8.28;2.40;;;;;;;21.81;100.00;99475.30;1733765;82;20920;-73
2022/07/24 02:51:26;;;;;;;3.83;1.98;;;;;;;21.72;100.00;99484.06;1723880;81;21090;-73
2022/07/24 02:53:58;;;;;;;7.80;2.55;;;;;;;21.65;100.00;99487.66;1742255;82;21012;-73
2022/07/24 02:56:25;;;;;;;5.55;2.65;;;;;;;21.71;100.00;99486.08;1748936;81;21406;-73
2022/07/24 02:58:56;;;;;;;3.55;2.50;;;;;;;21.74;100.00;99478.27;1731838;82;20921;-73
2022/07/24 03:01:24;;;;;;;3.15;2.30;;;;;;;21.78;100.00;99478.28;1748540;81;20844;-73
2022/07/24 03:03:56;;;;;;;4.12;2.02;;;;;;;21.81;100.00;99476.11;1720520;80;21868;-72
2022/07/24 03:06:22;;;;;;;3.67;1.82;;;;;;;21.87;100.00;99475.13;1742428;82;21173;-73
2022/07/24 03:08:51;;;;;;;4.33;2.47;;;;;;;21.94;100.00;99463.89;1739440;82;20825;-73
2022/07/24 03:11:21;;;;;;;4.20;2.15;;;;;;;22.05;100.00;99468.12;1715714;82;20987;-73
2022/07/24 03:13:51;;;;;;;4.17;2.20;;;;;;;22.12;100.00;99460.30;1740265;82;21516;-73
2022/07/24 03:16:22;;;;;;;7.72;2.30;;;;;;;22.21;100.00;99461.30;1734820;82;20899;-72
2022/07/24 03:18:49;;;;;;;5.58;2.47;;;;;;;22.25;100.00;99460.09;1720363;82;21935;-72
2022/07/24 03:21:19;;;;;;;4.08;2.35;;;;;;;22.34;100.00;99452.67;1716885;82;21019;-73
2022/07/24 03:23:46;;;;;;;2.95;2.42;;;;;;;22.46;100.00;99456.26;1726585;82;21058;-73
2022/07/24 03:26:13;;;;;;;4.05;2.27;;;;;;;22.54;100.00;99457.03;1718894;82;20939;-72
2022/07/24 03:28:42;;;;;;;5.58;2.35;;;;;;;22.61;100.00;99450.84;1723044;81;21062;-72
2022/07/24 03:31:12;;;;;;;4.42;1.82;;;;;;;22.71;100.00;99452.61;1708663;82;21883;-73
2022/07/24 03:33:43;;;;;;;4.00;2.50;;;;;;;22.81;100.00;99443.36;1731672;82;20923;-73
2022/07/24 03:36:11;;;;;;;4.87;2.20;;;;;;;22.91;100.00;99443.74;1684011;85;20963;-73
2022/07/24 03:38:40;;;;;;;9.70;2.10;;;;;;;22.97;100.00;99442.10;1694552;82;20948;-74
2022/07/24 03:41:09;;;;;;;3.47;2.20;;;;;;;23.04;100.00;99441.27;1722648;82;20992;-73
2022/07/24 03:43:38;;;;;;;3.10;2.30;;;;;;;23.09;100.00;99440.84;1723011;82;21099;-73
2022/07/24 03:46:08;;;;;;;5.67;2.12;;;;;;;23.15;100.00;99446.85;1738753;82;21402;-73
2022/07/24 03:48:36;;;;;;;4.17;2.22;;;;;;;23.13;100.00;99452.88;1692713;82;21594;-73
2022/07/24 03:51:07;;;;;;;4.53;2.47;;;;;;;23.16;100.00;99459.09;1737054;82;21446;-73
2022/07/24 03:53:34;;;;;;;5.47;2.20;;;;;;;23.18;100.00;99458.67;1725574;82;20885;-73
2022/07/24 03:56:09;;;;;;;2.72;1.80;;;;;;;23.25;100.00;99460.05;1723637;82;21552;-73
2022/07/24 03:58:43;;;;;;;4.70;2.30;;;;;;;23.34;100.00;99453.36;1725275;82;20903;-73
2022/07/24 04:01:13;;;;;;;6.45;2.22;;;;;;;23.47;100.00;99461.37;1733366;82;21066;-73
2022/07/24 04:03:43;;;;;;;6.33;2.72;;;;;;;23.54;100.00;99458.48;1715444;81;20969;-74
2022/07/24 04:06:11;;;;;;;4.75;3.22;;;;;;;23.64;100.00;99453.22;1718891;82;20963;-72
2022/07/24 04:08:38;;;;;;;3.58;2.02;;;;;;;23.70;100.00;99450.16;1710075;83;21154;-72
2022/07/24 04:11:07;;;;;;;3.95;2.12;;;;;;;23.78;100.00;99446.08;1720412;81;20937;-73
2022/07/24 04:13:37;;;;;;;4.37;2.20;;;;;;;23.87;100.00;99449.84;1719017;83;21011;-73
2022/07/24 04:16:11;;;;;;;7.55;2.50;;;;;;;23.97;100.00;99454.40;1727685;81;20955;-71
2022/07/24 04:18:40;;;;;;;3.22;2.15;;;;;;;24.04;100.00;99452.31;1727919;81;20849;-73
2022/07/24 04:21:09;;;;;;;5.67;2.08;;;;;;;24.14;100.00;99455.47;1724405;83;21135;-71
2022/07/24 04:23:37;;;;;;;3.08;1.77;;;;;;;24.24;100.00;99448.95;1724035;83;20975;-72
2022/07/24 04:26:07;;;;;;;3.12;1.82;;;;;;;24.34;100.00;99447.87;1724114;83;21024;-73
2022/07/24 04:28:37;;;;;;;6.25;2.15;;;;;;;24.42;100.00;99445.98;1733515;81;20937;-72
2022/07/24 04:31:04;;;;;;;4.45;2.12;;;;;;;24.47;100.00;99441.91;1758652;81;20953;-73
2022/07/24 04:33:31;;;;;;;4.70;1.80;;;;;;;24.53;100.00;99427.55;1757767;81;21934;-72
2022/07/24 04:35:59;;;;;;;7.97;2.02;;;;;;;24.60;100.00;99428.08;1725966;81;21055;-73
2022/07/24 04:38:30;;;;;;;7.42;2.30;;;;;;;24.70;100.00;99424.17;1754626;81;21004;-73
2022/07/24 04:40:56;;;;;;;5.00;1.87;;;;;;;24.79;100.00;99418.21;1742061;81;21571;-73
2022/07/24 04:43:24;;;;;;;2.67;1.62;;;;;;;24.83;100.00;99414.55;1757904;81;20833;-69
2022/07/24 04:45:56;;;;;;;5.45;1.95;;;;;;;24.95;100.00;99414.63;1750618;81;21455;-73
2022/07/24 04:48:24;;;;;;;4.05;1.82;;;;;;;25.00;100.00;99413.56;1753295;81;20940;-73
2022/07/24 04:50:52;;;;;;;2.37;1.65;;;;;;;25.06;100.00;99409.64;1724537;81;20912;-73
2022/07/24 04:53:23;;;;;;;1.55;1.42;;;;;;;25.16;100.00;99413.56;1709996;82;21048;-73
2022/07/24 04:55:51;;;;;;;3.60;1.67;;;;;;;25.16;100.00;99404.48;1698012;82;20968;-72
2022/07/24 04:58:25;;;;;;;3.20;1.65;;;;;;;25.28;100.00;99403.11;1753731;81;20981;-71
2022/07/24 05:00:53;;;;;;;6.78;2.12;;;;;;;25.33;100.00;99407.49;1752970;81;20963;-72
2022/07/24 05:03:22;;;;;;;5.12;1.67;;;;;;;25.39;100.00;99412.02;1754523;81;21138;-73
2022/07/24 05:05:50;;;;;;;5.47;1.40;;;;;;;25.45;100.00;99413.77;1736863;82;20971;-73
2022/07/24 05:08:18;;;;;;;5.30;2.08;;;;;;;25.50;100.00;99413.28;1755176;81;21009;-73
2022/07/24 05:10:52;;;;;;;4.25;1.92;;;;;;;25.50;100.00;99404.83;1755834;81;22106;-71
2022/07/24 05:13:19;;;;;;;7.22;2.33;;;;;;;25.50;100.00;99402.78;1750335;81;21010;-74
2022/07/24 05:15:48;;;;;;;8.23;2.05;;;;;;;25.56;100.00;99406.53;1754074;81;21039;-74
2022/07/24 05:18:15;;;;;;;2.92;1.77;;;;;;;25.59;100.00;99404.30;1721300;82;20935;-74
2022/07/24 05:20:44;;;;;;;2.65;1.50;;;;;;;25.59;100.00;99398.66;1736695;82;20985;-74
2022/07/24 05:23:19;;;;;;;4.58;1.90;;;;;;;25.62;100.00;99396.38;1740057;82;20979;-73
2022/07/24 05:25:45;;;;;;;;;;;;;;;25.65;100.00;99387.09;1691181;84;21063;-72
2022/07/24 05:28:20;;;;;;;3.80;2.20;;;;;;;25.68;100.00;99393.28;1697894;83;20152;-73
2022/07/24 05:30:51;;;;;;;5.97;2.65;;;;;;;25.72;100.00;99391.22;1713039;83;21339;-73
2022/07/24 05:33:21;;;;;;;3.85;2.00;;;;;;;25.83;100.00;99380.37;1693595;83;21048;-73
2022/07/24 05:35:51;;;;;;;8.00;2.45;;;;;;;25.92;100.00;99389.06;1715644;83;21126;-72
2022/07/24 05:38:23;;;;;;;2.00;1.80;;;;;;;26.00;100.00;99383.47;1715924;83;21438;-71
2022/07/24 05:40:55;;;;;;;3.22;1.90;;;;;;;26.10;100.00;99392.19;1716792;82;20976;-73
2022/07/24 05:43:27;;;;;;;3.52;2.08;;;;;;;26.18;100.00;99394.26;1744776;81;21454;-73
2022/07/24 05:45:53;;;;;;;3.17;1.80;;;;;;;26.24;100.00;99400.39;1755388;81;21000;-71
2022/07/24 05:48:26;;;;;;;3.33;2.12;;;;;;;26.33;100.00;99398.45;1739993;82;20938;-73
2022/07/24 05:50:54;;;;;;;3.30;1.92;;;;;;;26.41;100.00;99406.15;1740388;81;20890;-73
2022/07/24 05:53:21;;;;;;;4.33;2.47;;;;;;;26.48;100.00;99396.14;1740405;82;20985;-73
2022/07/24 05:55:50;;;;;;;7.83;1.92;;;;;;;26.56;100.00;99405.89;1739959;81;20969;-71
2022/07/24 05:58:18;;;;;;;3.00;1.62;;;;;;;26.61;100.00;99402.56;1713085;82;21005;-72
2022/07/24 06:00:48;;;;;;;3.47;1.95;;;;;;;26.64;100.00;99406.53;1740514;82;21005;-72
2022/07/24 06:03:19;;;;;;;5.67;1.60;;;;;;;26.68;100.00;99400.98;1742833;82;20865;-73
2022/07/24 06:05:50;;;;;;;3.33;1.90;;;;;;;26.74;100.00;99401.28;1730743;81;20934;-72
2022/07/24 06:08:18;;;;;;;6.33;1.95;;;;;;;26.82;100.00;99400.50;1740270;82;20937;-70
2022/07/24 06:10:46;;;;;;;5.15;1.80;;;;;;;26.85;100.00;99396.20;1740472;82;20994;-72
2022/07/24 06:13:13;;;;;;;2.67;1.57;;;;;;;26.91;100.00;99402.14;1740611;82;21114;-74
2022/07/24 06:15:44;;;;;;;10.40;2.12;;;;;;;26.95;100.00;99404.30;1743921;82;20881;-73
2022/07/24 06:18:15;;;;;;;1.82;1.60;;;;;;;26.99;100.00;99401.36;1769536;80;20984;-75
2022/07/24 06:20:46;;;;;;;6.05;1.12;;;;;;;27.04;100.00;99401.52;1745090;82;21480;-73
2022/07/24 06:23:12;;;;;;;3.40;1.60;;;;;;;27.09;100.00;99393.30;1745376;82;21051;-73
2022/07/24 06:25:40;;;;;;;2.83;1.72;;;;;;;27.12;100.00;99390.23;1745292;82;21312;-72
2022/07/24 06:28:09;;;;;;;2.55;1.55;;;;;;;27.16;100.00;99387.33;1745503;80;20968;-72
2022/07/24 06:30:36;;;;;;;9.33;1.65;;;;;;;27.20;100.00;99393.06;1745365;82;21043;-72
2022/07/24 06:33:08;;;;;;;13.18;1.67;;;;;;;27.25;100.00;99390.94;1743915;82;20889;-72
2022/07/24 06:35:36;;;;;;;7.60;1.42;;;;;;;27.30;100.00;99388.40;1744057;82;21007;-72
2022/07/24 06:38:03;;;;;;;2.50;1.90;;;;;;;27.36;100.00;99388.68;1745473;82;21054;-72
2022/07/24 06:40:31;;;;;;;6.42;1.90;;;;;;;27.40;100.00;99389.38;1745355;82;20980;-72
2022/07/24 06:42:58;;;;;;;1.95;1.47;;;;;;;27.44;100.00;99387.27;1745590;82;21496;-72
2022/07/24 06:45:26;;;;;;;2.70;1.60;;;;;;;27.49;100.00;99383.73;1745869;82;21430;-72
2022/07/24 06:47:56;;;;;;;3.00;1.40;;;;;;;27.55;100.00;99384.81;1708489;82;21083;-71
2022/07/24 06:50:33;;;;;;;4.42;1.47;;;;;;;27.61;100.00;99385.86;1745569;82;21402;-72
2022/07/24 06:53:05;;;;;;;6.75;1.67;;;;;;;27.67;100.00;99378.42;1745352;82;20880;-71
2022/07/24 06:55:34;;;;;;;2.58;1.50;;;;;;;27.75;100.00;99379.09;1745296;82;21004;-71
2022/07/24 06:58:04;;;;;;;2.55;1.75;;;;;;;27.79;100.00;99377.59;1741219;82;20992;-72
2022/07/24 07:00:33;;;;;;;2.37;1.50;;;;;;;27.84;100.00;99368.56;1745423;82;21448;-72
2022/07/24 07:03:03;;;;;;;1.85;1.42;;;;;;;27.89;100.00;99365.20;1745407;82;21150;-72
2022/07/24 07:05:31;;;;;;;4.92;1.70;;;;;;;27.97;100.00;99357.92;1746680;82;21558;-71
2022/07/24 07:07:59;;;;;;;2.92;1.60;;;;;;;28.01;100.00;99350.91;1747938;82;21040;-70
2022/07/24 07:10:25;;;;;;;6.03;1.52;;;;;;;28.06;100.00;99347.55;1748557;82;20889;-72
2022/07/24 07:12:53;;;;;;;1.40;1.25;;;;;;;28.14;100.00;99348.77;1748284;82;20877;-72
2022/07/24 07:15:19;;;;;;;20.43;8.50;;;;;;;28.22;100.00;99351.58;1748490;82;21085;-72
2022/07/24 07:17:47;;;;;;;24.20;14.65;;;;;;;28.30;100.00;99349.36;1748183;82;20885;-72
2022/07/24 07:20:17;;;;;;;1.82;1.67;;;;;;;28.39;100.00;99351.55;1748287;82;20912;-72
2022/07/24 07:22:47;;;;;;;5.78;2.12;;;;;;;28.46;100.00;99344.89;1748393;82;21000;-71
2022/07/24 07:25:16;;;;;;;2.05;1.42;;;;;;;28.47;100.00;99336.58;1748158;82;20967;-71
2022/07/24 07:27:49;;;;;;;4.28;1.42;;;;;;;28.48;100.00;99337.55;1748188;80;21054;-72
2022/07/24 07:30:16;;;;;;;7.00;2.02;;;;;;;28.64;100.00;99338.72;1748538;82;21107;-72
2022/07/24 07:32:45;;;;;;;1.67;1.22;;;;;;;28.61;100.00;99337.56;1748292;82;20924;-72
2022/07/24 07:35:18;;;;;;;3.83;1.32;;;;;;;28.73;100.00;99334.58;1694905;84;20978;-72
2022/07/24 07:37:46;;;;;;;6.50;2.12;;;;;;;28.76;100.00;99326.59;1694910;83;20942;-71
2022/07/24 07:40:14;;;;;;;1.87;1.60;;;;;;;28.80;100.00;99325.07;1694916;84;39991;-72
2022/07/24 07:42:46;;;;;;;2.58;1.62;;;;;;;28.88;100.00;99320.77;1693795;84;20981;-71
2022/07/24 07:45:13;;;;;;;1.85;1.57;;;;;;;29.02;99.63;99323.02;1694380;84;21508;-71
2022/07/24 07:47:43;;;;;;;3.50;1.35;;;;;;;29.07;100.00;99330.95;1694238;84;20977;-72
2022/07/24 07:50:14;;;;;;;3.98;1.82;;;;;;;29.16;98.97;99328.86;1687652;83;21106;-72
2022/07/24 07:52:43;;;;;;;2.55;1.40;;;;;;;29.36;97.63;99327.20;1676140;85;21879;-71
2022/07/24 07:55:11;;;;;;;4.70;1.52;;;;;;;29.41;96.26;99332.95;1677484;85;21543;-71
2022/07/24 07:57:43;;;;;;;1.80;1.47;;;;;;;29.56;93.75;99330.42;1677116;85;21074;-70
2022/07/24 08:00:18;;;;;;;4.90;1.87;;;;;;;29.59;94.57;99328.08;1677494;85;21016;-70
2022/07/24 08:02:48;;;;;;;4.40;1.98;;;;;;;29.74;93.98;99330.45;1675355;85;21033;-72
2022/07/24 08:05:19;;;;;;;4.97;1.72;;;;;;;29.81;92.70;99323.12;1685902;84;21082;-71
2022/07/24 08:07:47;;;;;;;1.50;1.40;;;;;;;29.82;93.96;99323.92;1695389;84;21547;-74
2022/07/24 08:10:18;;;;;;;3.85;1.50;;;;;;;29.94;94.08;99326.55;1688088;84;21107;-71
2022/07/24 08:12:47;;;;;;;6.58;1.85;;;;;;;30.01;87.88;99320.59;1673736;85;21538;-72
2022/07/24 08:15:16;;;;;;;3.75;1.50;;;;;;;30.06;87.33;99320.01;1688391;84;21067;-73
2022/07/24 08:17:44;;;;;;;5.55;1.10;;;;;;;30.11;85.14;99309.48;1659222;85;21316;-71
2022/07/24 08:20:12;;;;;;;3.00;1.50;;;;;;;30.20;83.30;99316.48;1688152;85;21009;-72
2022/07/24 08:22:44;;;;;;;1.60;1.45;;;;;;;30.27;82.56;99313.41;1688489;85;21088;-72
2022/07/24 08:25:16;;;;;;;;;;;;;;;30.34;83.35;99305.25;1689808;85;21135;-71
2022/07/24 08:27:49;;;;;;;;;;;;;;;30.43;85.70;99305.95;1689471;83;20191;-71
2022/07/24 08:30:16;;;;;;;2.20;1.60;;;;;;;30.46;80.13;99307.86;1688502;85;21923;-72
2022/07/24 08:32:46;;;;;;;1.67;1.10;;;;;;;30.45;77.88;99314.80;1688274;84;21000;-71
2022/07/24 08:35:16;;;;;;;2.90;1.15;;;;;;;30.49;78.62;99303.47;1688220;84;21579;-72
2022/07/24 08:37:57;;;;;;;1.75;1.60;;;;;;;30.56;79.56;99296.72;1685023;85;21540;-73
2022/07/24 08:40:36;;;;;;;3.85;1.40;;;;;;;30.64;79.89;99304.97;1685159;84;21059;-73
2022/07/24 08:43:08;;;;;;;4.60;1.22;;;;;;;30.69;80.24;99299.45;1685090;85;21583;-72
2022/07/24 08:45:43;;;;;;;4.05;1.10;;;;;;;30.76;81.13;99294.13;1688564;84;23215;-72
2022/07/24 08:48:12;;;;;;;2.92;1.40;;;;;;;30.85;80.66;99291.98;1688190;85;20996;-71
2022/07/24 08:50:43;;;;;;;6.42;1.47;;;;;;;30.89;81.99;99291.23;1688085;84;21039;-73
2022/07/24 08:53:13;;;;;;;4.50;1.60;;;;;;;30.94;83.84;99292.66;1688373;83;21080;-70
2022/07/24 08:55:40;;;;;;;4.53;1.62;;;;;;;31.05;83.31;99293.02;1688673;84;21794;-71
2022/07/24 08:58:10;;;;;;;6.08;1.05;;;;;;;31.14;82.87;99288.61;1687762;85;21055;-71
2022/07/24 09:00:41;;;;;;;9.48;1.52;;;;;;;31.23;82.88;99290.08;1687775;84;21090;-72
2022/07/24 09:03:09;;;;;;;9.05;1.90;;;;;;;31.27;81.24;99288.51;1681808;84;21087;-71
2022/07/24 09:05:54;;;;;;;3.70;1.50;;;;;;;31.33;81.95;99291.69;1687959;85;21285;-71
2022/07/24 09:08:22;;;;;;;5.20;1.50;;;;;;;31.32;80.07;99297.20;1687134;85;21472;-71
2022/07/24 09:11:00;;;;;;;2.90;1.60;;;;;;;31.33;84.01;99288.84;1688364;83;21095;-71
2022/07/24 09:13:29;;;;;;;3.65;1.50;;;;;;;31.34;79.67;99288.98;1691544;84;21270;-72
2022/07/24 09:15:58;;;;;;;4.72;1.40;;;;;;;31.37;79.45;99280.78;1688517;85;21038;-71
2022/07/24 09:18:33;;;;;;;3.92;1.40;;;;;;;31.48;77.80;99287.48;1687824;84;21050;-70
2022/07/24 09:21:12;;;;;;;4.97;1.65;;;;;;;31.62;76.72;99281.78;1688570;85;21767;-71
2022/07/24 09:23:40;;;;;;;7.87;1.60;;;;;;;31.72;76.53;99284.80;1688672;85;21516;-72
2022/07/24 09:40:46;;;;;;;7.55;1.77;;;;;;;31.81;82.05;99282.59;1700141;81;21074;-79
2022/07/24 09:43:17;;;;;;;3.27;2.02;;;;;;;31.73;79.45;99293.52;1671580;84;21518;-78
2022/07/24 09:46:00;;;;;;;3.77;1.40;;;;;;;31.65;76.84;99285.91;1676111;85;21490;-77
2022/07/24 09:48:33;;;;;;;3.10;1.70;;;;;;;31.62;75.84;99291.75;1666317;85;21109;-78
2022/07/24 09:51:12;;;;;;;2.92;1.80;;;;;;;31.53;75.20;99283.36;1668314;85;21035;-79
2022/07/24 09:53:44;;;;;;;3.87;1.67;;;;;;;31.49;76.08;99289.05;1677234;85;21555;-80
2022/07/24 09:56:16;;;;;;;8.73;1.87;;;;;;;31.44;76.18;99283.36;1677840;85;21030;-78
2022/07/24 09:58:51;;;;;;;3.45;1.50;;;;;;;31.40;77.57;99289.20;1641173;87;21696;-79
2022/07/24 10:01:23;;;;;;;5.95;1.82;;;;;;;31.36;80.10;99290.59;1643531;85;21177;-79
2022/07/24 10:03:51;;;;;;;5.65;1.90;;;;;;;31.30;79.67;99284.09;1676437;85;21051;-77
2022/07/24 10:06:25;;;;;;;5.47;1.67;;;;;;;31.22;82.50;99285.63;1679605;85;21151;-79
2022/07/24 10:08:52;;;;;;;3.75;1.45;;;;;;;31.11;81.60;99283.24;1678201;84;21114;-78
2022/07/24 10:11:20;;;;;;;5.00;1.77;;;;;;;31.04;82.85;99287.80;1629169;87;21556;-78
2022/07/24 10:13:48;;;;;;;12.28;2.52;;;;;;;31.01;86.59;99283.05;1613724;89;21916;-77
2022/07/24 10:16:27;;;;;;;2.65;1.37;;;;;;;31.03;86.12;99282.73;1641458;87;21091;-79
2022/07/24 10:19:04;;;;;;;5.47;1.50;;;;;;;31.01;87.40;99285.27;1641812;85;21031;-83
2022/07/24 10:21:38;;;;;;;3.77;1.60;;;;;;;31.02;84.47;99284.00;1645824;85;21066;-83
2022/07/24 10:24:11;;;;;;;6.03;1.82;;;;;;;31.03;85.09;99285.57;1680393;85;21046;-83
2022/07/24 10:26:49;;;;;;;6.30;1.80;;;;;;;30.97;84.12;99284.61;1642235;87;21118;-83
2022/07/24 10:29:19;;;;;;;4.70;1.37;;;;;;;30.89;84.17;99280.47;1647991;85;21039;-84
2022/07/24 10:31:55;;;;;;;4.37;1.40;;;;;;;30.88;90.19;99276.06;1613778;88;21567;-84
2022/07/24 10:34:48;;;;;;;10.18;1.98;;;;;;;30.88;93.63;99277.48;1612291;87;21091;-84
2022/07/24 10:37:20;;;;;;;4.03;1.62;;;;;;;30.79;95.33;99271.09;1679384;85;21030;-82
2022/07/24 10:40:10;;;;;;;3.77;1.62;;;;;;;30.74;97.23;99271.08;1679146;84;21141;-83
2022/07/24 10:43:09;;;;;;;2.65;1.65;;;;;;;30.74;96.18;99267.59;1707814;82;21036;-84
2022/07/24 10:45:40;;;;;;;7.15;1.45;;;;;;;30.75;94.69;99266.97;1705708;82;21033;-85
2022/07/24 10:48:26;;;;;;;4.37;1.90;;;;;;;30.74;93.55;99265.39;1708463;82;21017;-85
2022/07/24 10:51:15;;;;;;;4.37;1.60;;;;;;;30.72;95.03;99261.60;1714296;82;21072;-85
2022/07/24 10:53:50;;;;;;;5.12;1.65;;;;;;;30.71;95.55;99262.84;1660022;85;21202;-83
2022/07/24 10:56:28;;;;;;;5.33;2.10;;;;;;;30.76;98.03;99260.66;1710856;82;21610;-86
2022/07/24 10:59:06;;;;;;;6.28;1.95;;;;;;;30.81;100.00;99260.86;1714921;82;21024;-82
2022/07/24 11:01:50;;;;;;;4.62;1.70;;;;;;;30.89;100.00;99254.89;1710282;82;21470;-85
2022/07/24 11:04:25;;;;;;;4.90;1.80;;;;;;;30.96;99.34;99253.95;1708971;82;21032;-85
2022/07/24 11:07:09;;;;;;;4.05;1.57;;;;;;;31.05;100.00;99242.48;1685593;84;21176;-83
2022/07/24 11:10:07;;;;;;;1.52;1.37;;;;;;;31.18;96.63;99243.77;1654231;85;21015;-84
2022/07/24 11:12:33;;;;;;;7.40;1.60;;;;;;;31.27;94.47;99244.42;1690358;82;21035;-83
2022/07/24 11:17:50;;;;;;;5.42;1.98;;;;;;;31.50;94.10;99240.83;1717608;82;21090;-84
2022/07/24 11:20:19;;;;;;;10.25;2.08;;;;;;;31.49;94.92;99239.25;1680721;84;21177;-81
2022/07/24 11:22:52;;;;;;;4.15;2.37;;;;;;;31.43;92.31;99241.30;1671966;85;21037;-85
2022/07/24 11:25:28;;;;;;;6.37;1.90;;;;;;;31.41;91.33;99241.60;1671570;85;21123;-82
2022/07/24 11:28:10;;;;;;;3.27;1.65;;;;;;;31.38;93.85;99239.05;1674045;84;21067;-83
2022/07/24 11:30:42;;;;;;;2.67;2.33;;;;;;;31.37;95.64;99235.26;1681740;84;21603;-82
2022/07/24 11:33:11;;;;;;;5.47;2.35;;;;;;;31.30;94.39;99242.84;1647507;84;21163;-85
2022/07/24 11:35:38;;;;;;;6.90;2.80;;;;;;;31.14;89.12;99236.00;1683179;84;21536;-83
2022/07/24 11:38:07;;;;;;;7.42;2.92;;;;;;;30.87;87.08;99233.23;1673066;84;21505;-86
2022/07/24 11:40:35;;;;;;;6.12;3.27;;;;;;;30.60;88.54;99226.34;1670398;84;21011;-83
2022/07/24 11:43:26;;;;;;;8.98;5.08;;;;;;;30.50;96.23;99227.55;1669615;84;21150;-84
2022/07/24 11:45:53;;;;;;;7.35;4.10;;;;;;;30.35;100.00;99233.00;1732795;81;21103;-72
2022/07/24 11:48:30;;;;;;;10.32;4.72;;;;;;;30.17;100.00;99230.17;1725775;81;21553;-68
2022/07/24 11:51:08;;;;;;;7.08;4.67;;;;;;;30.08;100.00;99232.94;1741556;80;21083;-70
2022/07/24 11:53:38;;;;;;;7.10;5.08;;;;;;;30.00;100.00;99229.59;1740749;80;21046;-69
2022/07/24 11:56:09;;;;;;;8.78;5.62;;;;;;;29.89;100.00;99235.03;1740196;82;21080;-70
2022/07/24 11:58:41;;;;;;;9.48;5.62;;;;;;;29.80;100.00;99229.30;1744030;80;21288;-69
2022/07/24 12:01:21;;;;;;;;;;;;;;;29.62;100.00;99234.98;1717406;80;21052;-69
2022/07/24 12:03:55;;;;;;;7.08;5.75;;;;;;;29.57;100.00;99241.20;1707932;82;20195;-68